createdAt,value
2024-04-14T00:00:29.150Z,1011.33
2024-04-14T00:01:29.193Z,1011.32
2024-04-14T00:02:29.081Z,1011.36
2024-04-14T00:03:29.100Z,1011.37
2024-04-14T00:04:29.307Z,1011.32
2024-04-14T00:05:29.096Z,1011.29
2024-04-14T00:06:29.084Z,1011.30
2024-04-14T00:07:29.057Z,1011.29
2024-04-14T00:08:29.076Z,1011.26
2024-04-14T00:09:29.035Z,1011.27
2024-04-14T00:10:28.994Z,1011.19
2024-04-14T00:11:29.013Z,1011.16
2024-04-14T00:12:29.134Z,1011.14
2024-04-14T00:13:29.038Z,1011.14
2024-04-14T00:14:28.974Z,1011.14
2024-04-14T00:15:28.978Z,1011.10
2024-04-14T00:16:28.941Z,1011.08
2024-04-14T00:17:29.013Z,1011.08
2024-04-14T00:18:29.050Z,1011.02
2024-04-14T00:19:29.342Z,1011.06
2024-04-14T00:20:28.913Z,1011.05
2024-04-14T00:21:28.941Z,1011.00
2024-04-14T00:22:28.885Z,1011.00
2024-04-14T00:23:28.902Z,1010.99
2024-04-14T00:24:28.890Z,1010.96
2024-04-14T00:25:28.850Z,1010.93
2024-04-14T00:26:28.852Z,1010.92
2024-04-14T00:27:28.889Z,1010.90
2024-04-14T00:28:28.820Z,1010.90
2024-04-14T00:29:28.830Z,1010.87
2024-04-14T00:30:28.828Z,1010.87
2024-04-14T00:31:28.795Z,1010.84
2024-04-14T00:32:28.867Z,1010.84
2024-04-14T00:33:28.784Z,1010.77
2024-04-14T00:34:28.752Z,1010.83
2024-04-14T00:35:28.734Z,1010.80
2024-04-14T00:36:28.765Z,1010.80
2024-04-14T00:37:28.717Z,1010.79
2024-04-14T00:38:28.724Z,1010.80
2024-04-14T00:39:28.814Z,1010.72
2024-04-14T00:40:28.690Z,1010.79
2024-04-14T00:41:28.679Z,1010.69
2024-04-14T00:42:28.762Z,1010.72
2024-04-14T00:43:28.668Z,1010.71
2024-04-14T00:44:28.648Z,1010.70
2024-04-14T00:45:28.670Z,1010.66
2024-04-14T00:46:28.629Z,1010.67
2024-04-14T00:47:28.672Z,1010.67
2024-04-14T00:48:28.731Z,1010.69
2024-04-14T00:49:28.669Z,1010.66
2024-04-14T00:50:28.595Z,1010.67
2024-04-14T00:51:28.599Z,1010.65
2024-04-14T00:52:28.568Z,1010.67
2024-04-14T00:53:28.549Z,1010.68
2024-04-14T00:54:28.603Z,1010.62
2024-04-14T00:55:28.530Z,1010.65
2024-04-14T00:56:28.540Z,1010.61
2024-04-14T00:57:28.538Z,1010.58
2024-04-14T00:58:28.519Z,1010.57
2024-04-14T00:59:28.489Z,1010.56
2024-04-14T01:00:28.519Z,1010.54
2024-04-14T01:01:28.601Z,1010.57
2024-04-14T01:02:28.468Z,1010.51
2024-04-14T01:03:28.527Z,1010.52
2024-04-14T01:04:28.514Z,1010.49
2024-04-14T01:05:28.419Z,1010.47
2024-04-14T01:06:28.455Z,1010.48
2024-04-14T01:07:28.427Z,1010.45
2024-04-14T01:08:28.646Z,1010.43
2024-04-14T01:09:28.393Z,1010.43
2024-04-14T01:10:28.383Z,1010.41
2024-04-14T01:11:28.354Z,1010.39
2024-04-14T01:12:28.370Z,1010.32
2024-04-14T01:13:28.362Z,1010.31
2024-04-14T01:14:28.386Z,1010.30
2024-04-14T01:15:28.332Z,1010.27
2024-04-14T01:16:28.308Z,1010.27
2024-04-14T01:17:28.330Z,1010.27
2024-04-14T01:18:28.378Z,1010.25
2024-04-14T01:19:28.266Z,1010.22
2024-04-14T01:20:28.307Z,1010.25
2024-04-14T01:21:28.315Z,1010.21
2024-04-14T01:22:28.243Z,1010.18
2024-04-14T01:23:28.227Z,1010.21
2024-04-14T01:24:28.256Z,1010.19
2024-04-14T01:25:28.219Z,1010.17
2024-04-14T01:26:28.210Z,1010.19
2024-04-14T01:27:28.292Z,1010.20
2024-04-14T01:28:28.176Z,1010.16
2024-04-14T01:29:28.199Z,1010.20
2024-04-14T01:30:28.173Z,1010.18
2024-04-14T01:31:28.141Z,1010.17
2024-04-14T01:32:28.156Z,1010.15
2024-04-14T01:33:28.625Z,1010.18
2024-04-14T01:34:28.108Z,1010.18
2024-04-14T01:35:28.104Z,1010.16
2024-04-14T01:36:28.124Z,1010.13
2024-04-14T01:37:28.086Z,1010.12
2024-04-14T01:38:28.682Z,1010.13
2024-04-14T01:39:28.061Z,1010.14
2024-04-14T01:40:28.058Z,1010.12
2024-04-14T01:41:28.040Z,1010.10
2024-04-14T01:42:28.054Z,1010.10
2024-04-14T01:43:28.041Z,1010.07
2024-04-14T01:44:28.029Z,1010.05
2024-04-14T01:45:28.034Z,1010.12
2024-04-14T01:46:27.984Z,1010.12
2024-04-14T01:47:28.016Z,1010.18
2024-04-14T01:48:28.043Z,1010.20
2024-04-14T01:49:28.039Z,1010.15
2024-04-14T01:50:27.995Z,1010.14
2024-04-14T01:51:27.989Z,1010.16
2024-04-14T01:52:27.917Z,1010.14
2024-04-14T01:53:27.935Z,1010.12
2024-04-14T01:54:27.932Z,1010.12
2024-04-14T01:55:27.886Z,1010.19
2024-04-14T01:56:27.921Z,1010.18
2024-04-14T01:57:27.949Z,1010.13
2024-04-14T01:58:27.858Z,1010.15
2024-04-14T01:59:27.851Z,1010.17
2024-04-14T02:00:28.003Z,1010.14
2024-04-14T02:01:27.981Z,1010.15
2024-04-14T02:02:27.812Z,1010.22
2024-04-14T02:03:27.937Z,1010.21
2024-04-14T02:04:27.982Z,1010.17
2024-04-14T02:05:27.784Z,1010.25
2024-04-14T02:06:27.841Z,1010.19
2024-04-14T02:07:27.757Z,1010.21
2024-04-14T02:08:27.766Z,1010.29
2024-04-14T02:09:27.750Z,1010.30
2024-04-14T02:10:27.757Z,1010.22
2024-04-14T02:11:27.724Z,1010.22
2024-04-14T02:12:27.737Z,1010.20
2024-04-14T02:13:27.699Z,1010.22
2024-04-14T02:14:27.693Z,1010.25
2024-04-14T02:15:27.694Z,1010.20
2024-04-14T02:16:27.673Z,1010.17
2024-04-14T02:17:27.733Z,1010.18
2024-04-14T02:18:27.753Z,1010.24
2024-04-14T02:19:27.638Z,1010.26
2024-04-14T02:20:27.645Z,1010.26
2024-04-14T02:21:27.626Z,1010.22
2024-04-14T02:22:27.600Z,1010.20
2024-04-14T02:23:27.590Z,1010.23
2024-04-14T02:24:27.652Z,1010.16
2024-04-14T02:25:27.588Z,1010.23
2024-04-14T02:26:27.559Z,1010.28
2024-04-14T02:27:27.566Z,1010.31
2024-04-14T02:28:27.528Z,1010.34
2024-04-14T02:29:27.547Z,1010.34
2024-04-14T02:30:27.583Z,1010.34
2024-04-14T02:31:27.493Z,1010.37
2024-04-14T02:32:27.635Z,1010.37
2024-04-14T02:33:27.527Z,1010.41
2024-04-14T02:34:27.479Z,1010.39
2024-04-14T02:35:27.486Z,1010.36
2024-04-14T02:36:27.540Z,1010.40
2024-04-14T02:37:27.439Z,1010.41
2024-04-14T02:38:27.428Z,1010.41
2024-04-14T02:39:27.427Z,1010.44
2024-04-14T02:40:27.407Z,1010.41
2024-04-14T02:41:27.398Z,1010.34
2024-04-14T02:42:27.397Z,1010.36
2024-04-14T02:43:27.374Z,1010.38
2024-04-14T02:44:27.397Z,1010.39
2024-04-14T02:45:27.390Z,1010.45
2024-04-14T02:46:27.362Z,1010.35
2024-04-14T02:47:27.348Z,1010.36
2024-04-14T02:48:27.502Z,1010.31
2024-04-14T02:49:27.420Z,1010.24
2024-04-14T02:50:27.300Z,1010.33
2024-04-14T02:51:27.324Z,1010.31
2024-04-14T02:52:27.306Z,1010.31
2024-04-14T02:53:27.269Z,1010.31
2024-04-14T02:54:27.275Z,1010.37
2024-04-14T02:55:27.304Z,1010.44
2024-04-14T02:56:27.250Z,1010.36
2024-04-14T02:57:27.260Z,1010.34
2024-04-14T02:58:27.220Z,1010.39
2024-04-14T02:59:27.202Z,1010.41
2024-04-14T03:00:27.215Z,1010.42
2024-04-14T03:01:27.262Z,1010.39
2024-04-14T03:02:27.215Z,1010.43
2024-04-14T03:03:27.199Z,1010.47
2024-04-14T03:04:27.258Z,1010.47
2024-04-14T03:05:27.149Z,1010.43
2024-04-14T03:06:27.168Z,1010.52
2024-04-14T03:07:27.167Z,1010.45
2024-04-14T03:08:27.127Z,1010.54
2024-04-14T03:09:27.104Z,1010.49
2024-04-14T03:10:27.098Z,1010.48
2024-04-14T03:11:27.114Z,1010.49
2024-04-14T03:12:27.097Z,1010.46
2024-04-14T03:13:27.099Z,1010.44
2024-04-14T03:14:27.059Z,1010.50
2024-04-14T03:15:27.090Z,1010.44
2024-04-14T03:16:27.018Z,1010.48
2024-04-14T03:17:27.102Z,1010.50
2024-04-14T03:18:27.024Z,1010.49
2024-04-14T03:19:27.004Z,1010.48
2024-04-14T03:20:27.015Z,1010.52
2024-04-14T03:21:26.996Z,1010.51
2024-04-14T03:22:26.965Z,1010.52
2024-04-14T03:23:26.987Z,1010.55
2024-04-14T03:24:27.000Z,1010.56
2024-04-14T03:25:26.931Z,1010.53
2024-04-14T03:26:26.911Z,1010.57
2024-04-14T03:27:26.918Z,1010.61
2024-04-14T03:28:26.896Z,1010.56
2024-04-14T03:29:26.911Z,1010.64
2024-04-14T03:30:26.902Z,1010.60
2024-04-14T03:31:26.911Z,1010.61
2024-04-14T03:32:26.854Z,1010.66
2024-04-14T03:33:26.907Z,1010.63
2024-04-14T03:34:26.835Z,1010.65
2024-04-14T03:35:26.838Z,1010.63
2024-04-14T03:36:26.864Z,1010.71
2024-04-14T03:37:26.804Z,1010.71
2024-04-14T03:38:26.744Z,1010.74
2024-04-14T03:39:26.815Z,1010.72
2024-04-14T03:40:26.708Z,1010.73
2024-04-14T03:41:26.700Z,1010.78
2024-04-14T03:42:26.749Z,1010.79
2024-04-14T03:43:26.686Z,1010.74
2024-04-14T03:44:26.682Z,1010.80
2024-04-14T03:45:26.719Z,1010.77
2024-04-14T03:46:26.661Z,1010.76
2024-04-14T03:47:26.707Z,1010.78
2024-04-14T03:48:26.780Z,1010.76
2024-04-14T03:49:26.664Z,1010.78
2024-04-14T03:50:26.607Z,1010.77
2024-04-14T03:51:26.670Z,1010.77
2024-04-14T03:52:26.598Z,1010.81
2024-04-14T03:53:26.588Z,1010.77
2024-04-14T03:54:26.582Z,1010.81
2024-04-14T03:55:26.561Z,1010.76
2024-04-14T03:56:26.578Z,1010.89
2024-04-14T03:57:26.664Z,1010.91
2024-04-14T03:58:26.521Z,1010.91
2024-04-14T03:59:26.513Z,1010.89
2024-04-14T04:00:26.518Z,1010.89
2024-04-14T04:01:26.662Z,1010.94
2024-04-14T04:02:26.574Z,1010.97
2024-04-14T04:03:26.549Z,1010.97
2024-04-14T04:04:26.465Z,1011.00
2024-04-14T04:05:26.449Z,1011.07
2024-04-14T04:06:26.446Z,1011.02
2024-04-14T04:07:26.430Z,1011.03
2024-04-14T04:08:26.480Z,1011.01
2024-04-14T04:09:26.428Z,1011.07
2024-04-14T04:10:26.424Z,1011.06
2024-04-14T04:11:26.441Z,1011.10
2024-04-14T04:12:26.447Z,1011.08
2024-04-14T04:13:26.380Z,1011.05
2024-04-14T04:14:26.375Z,1011.09
2024-04-14T04:15:26.370Z,1011.11
2024-04-14T04:16:26.335Z,1011.13
2024-04-14T04:17:26.388Z,1011.13
2024-04-14T04:18:26.783Z,1011.15
2024-04-14T04:19:27.758Z,1011.18
2024-04-14T04:20:26.301Z,1011.19
2024-04-14T04:21:26.358Z,1011.26
2024-04-14T04:22:26.276Z,1011.37
2024-04-14T04:23:26.264Z,1011.29
2024-04-14T04:24:26.344Z,1011.32
2024-04-14T04:25:26.235Z,1011.45
2024-04-14T04:26:26.233Z,1011.37
2024-04-14T04:27:26.223Z,1011.43
2024-04-14T04:28:26.227Z,1011.43
2024-04-14T04:29:26.246Z,1011.42
2024-04-14T04:30:26.285Z,1011.40
2024-04-14T04:31:26.181Z,1011.46
2024-04-14T04:32:26.195Z,1011.50
2024-04-14T04:33:26.267Z,1011.46
2024-04-14T04:34:26.236Z,1011.50
2024-04-14T04:35:26.129Z,1011.46
2024-04-14T04:36:26.184Z,1011.52
2024-04-14T04:37:26.113Z,1011.51
2024-04-14T04:38:26.127Z,1011.53
2024-04-14T04:39:26.116Z,1011.60
2024-04-14T04:40:26.083Z,1011.55
2024-04-14T04:41:26.086Z,1011.59
2024-04-14T04:42:26.086Z,1011.58
2024-04-14T04:43:26.072Z,1011.63
2024-04-14T04:44:26.047Z,1011.62
2024-04-14T04:45:26.040Z,1011.55
2024-04-14T04:46:26.063Z,1011.59
2024-04-14T04:47:26.103Z,1011.62
2024-04-14T04:48:26.278Z,1011.64
2024-04-14T04:49:26.124Z,1011.70
2024-04-14T04:50:26.002Z,1011.69
2024-04-14T04:51:26.027Z,1011.78
2024-04-14T04:52:26.033Z,1011.76
2024-04-14T04:53:25.962Z,1011.84
2024-04-14T04:54:25.971Z,1011.75
2024-04-14T04:55:25.962Z,1011.80
2024-04-14T04:56:25.919Z,1011.80
2024-04-14T04:57:25.967Z,1011.87
2024-04-14T04:58:25.893Z,1011.89
2024-04-14T04:59:25.886Z,1011.87
2024-04-14T05:00:25.893Z,1011.92
2024-04-14T05:01:25.967Z,1011.91
2024-04-14T05:02:25.880Z,1011.94
2024-04-14T05:03:29.934Z,1011.92
2024-04-14T05:04:25.858Z,1011.91
2024-04-14T05:05:25.805Z,1011.92
2024-04-14T05:06:25.861Z,1011.94
2024-04-14T05:07:25.789Z,1011.92
2024-04-14T05:08:25.788Z,1011.93
2024-04-14T05:09:25.842Z,1012.00
2024-04-14T05:10:27.832Z,1011.90
2024-04-14T05:11:25.820Z,1011.89
2024-04-14T05:12:25.782Z,1012.00
2024-04-14T05:13:25.764Z,1011.90
2024-04-14T05:14:25.751Z,1011.97
2024-04-14T05:15:25.763Z,1012.04
2024-04-14T05:16:25.708Z,1012.01
2024-04-14T05:17:25.776Z,1012.04
2024-04-14T05:18:25.851Z,1012.14
2024-04-14T05:19:25.703Z,1012.06
2024-04-14T05:20:25.676Z,1012.10
2024-04-14T05:21:25.738Z,1012.08
2024-04-14T05:22:25.655Z,1012.11
2024-04-14T05:23:25.637Z,1012.09
2024-04-14T05:24:25.653Z,1012.10
2024-04-14T05:25:25.624Z,1012.14
2024-04-14T05:26:25.643Z,1012.17
2024-04-14T05:27:25.590Z,1012.17
2024-04-14T05:28:25.591Z,1012.13
2024-04-14T05:29:25.566Z,1012.18
2024-04-14T05:30:25.582Z,1012.14
2024-04-14T05:31:25.595Z,1012.15
2024-04-14T05:32:25.642Z,1012.19
2024-04-14T05:33:25.600Z,1012.22
2024-04-14T05:34:25.555Z,1012.26
2024-04-14T05:35:25.508Z,1012.28
2024-04-14T05:36:25.562Z,1012.25
2024-04-14T05:37:25.503Z,1012.26
2024-04-14T05:38:25.501Z,1012.20
2024-04-14T05:39:25.468Z,1012.19
2024-04-14T05:40:25.458Z,1012.17
2024-04-14T05:41:25.495Z,1012.15
2024-04-14T05:42:25.513Z,1012.18
2024-04-14T05:43:25.413Z,1012.27
2024-04-14T05:44:25.414Z,1012.27
2024-04-14T05:45:25.473Z,1012.26
2024-04-14T05:46:25.393Z,1012.29
2024-04-14T05:47:25.439Z,1012.29
2024-04-14T05:48:25.516Z,1012.36
2024-04-14T05:49:25.379Z,1012.37
2024-04-14T05:50:25.369Z,1012.36
2024-04-14T05:51:25.391Z,1012.43
2024-04-14T05:52:25.318Z,1012.41
2024-04-14T05:53:25.397Z,1012.37
2024-04-14T05:54:25.380Z,1012.38
2024-04-14T05:55:26.280Z,1012.45
2024-04-14T05:56:25.274Z,1012.41
2024-04-14T05:57:25.308Z,1012.35
2024-04-14T05:58:25.256Z,1012.43
2024-04-14T05:59:25.274Z,1012.44
2024-04-14T06:00:25.432Z,1012.49
2024-04-14T06:01:25.296Z,1012.49
2024-04-14T06:02:25.213Z,1012.41
2024-04-14T06:03:25.273Z,1012.48
2024-04-14T06:04:25.363Z,1012.49
2024-04-14T06:05:25.186Z,1012.46
2024-04-14T06:06:25.211Z,1012.51
2024-04-14T06:07:25.165Z,1012.49
2024-04-14T06:08:25.143Z,1012.48
2024-04-14T06:09:25.277Z,1012.59
2024-04-14T06:10:25.132Z,1012.56
2024-04-14T06:11:25.127Z,1012.53
2024-04-14T06:12:25.147Z,1012.53
2024-04-14T06:13:25.102Z,1012.61
2024-04-14T06:14:25.083Z,1012.53
2024-04-14T06:15:25.189Z,1012.61
2024-04-14T06:16:25.188Z,1012.60
2024-04-14T06:17:25.060Z,1012.59
2024-04-14T06:18:25.059Z,1012.59
2024-04-14T06:19:25.036Z,1012.65
2024-04-14T06:20:25.083Z,1012.63
2024-04-14T06:21:25.074Z,1012.60
2024-04-14T06:22:25.000Z,1012.62
2024-04-14T06:23:25.004Z,1012.68
2024-04-14T06:24:24.982Z,1012.68
2024-04-14T06:25:24.992Z,1012.74
2024-04-14T06:26:24.974Z,1012.76
2024-04-14T06:27:24.997Z,1012.72
2024-04-14T06:28:24.930Z,1012.73
2024-04-14T06:29:24.961Z,1012.77
2024-04-14T06:30:24.972Z,1012.70
2024-04-14T06:31:24.913Z,1012.75
2024-04-14T06:32:24.945Z,1012.74
2024-04-14T06:33:25.209Z,1012.71
2024-04-14T06:34:24.896Z,1012.70
2024-04-14T06:35:24.918Z,1012.78
2024-04-14T06:36:24.894Z,1012.79
2024-04-14T06:37:24.855Z,1012.80
2024-04-14T06:38:24.833Z,1012.79
2024-04-14T06:39:24.878Z,1012.77
2024-04-14T06:40:24.829Z,1012.79
2024-04-14T06:41:24.874Z,1012.79
2024-04-14T06:42:24.851Z,1012.76
2024-04-14T06:43:24.793Z,1012.81
2024-04-14T06:44:24.771Z,1012.80
2024-04-14T06:45:24.791Z,1012.90
2024-04-14T06:46:24.773Z,1012.86
2024-04-14T06:47:24.827Z,1012.88
2024-04-14T06:48:24.740Z,1012.87
2024-04-14T06:49:24.726Z,1012.93
2024-04-14T06:50:24.715Z,1012.94
2024-04-14T06:51:24.716Z,1012.98
2024-04-14T06:52:24.734Z,1012.94
2024-04-14T06:53:24.682Z,1013.03
2024-04-14T06:54:24.669Z,1012.96
2024-04-14T06:55:24.657Z,1013.02
2024-04-14T12:50:28.981Z,1014.68
2024-04-14T12:51:22.713Z,1014.85
2024-04-14T12:52:22.720Z,1014.72
2024-04-14T12:53:22.688Z,1014.66
2024-04-14T12:54:22.676Z,1014.60
2024-04-14T12:55:22.746Z,1014.64
2024-04-14T12:56:22.665Z,1014.64
2024-04-14T12:57:22.657Z,1014.64
2024-04-14T12:58:22.649Z,1014.64
2024-04-14T12:59:22.616Z,1014.69
2024-04-14T13:00:22.616Z,1014.58
2024-04-14T13:01:22.851Z,1014.67
2024-04-14T13:02:22.589Z,1014.67
2024-04-14T13:03:22.590Z,1014.64
2024-04-14T13:04:22.663Z,1014.59
2024-04-14T13:05:22.573Z,1014.56
2024-04-14T13:06:22.562Z,1014.60
2024-04-14T13:07:22.549Z,1014.66
2024-04-14T13:08:22.528Z,1014.71
2024-04-14T13:09:22.525Z,1014.55
2024-04-14T13:10:22.594Z,1014.57
2024-04-14T13:11:22.537Z,1014.63
2024-04-14T13:12:22.508Z,1014.66
2024-04-14T13:13:22.495Z,1014.68
2024-04-14T13:14:22.476Z,1014.63
2024-04-14T13:15:22.481Z,1014.65
2024-04-14T13:16:22.539Z,1014.71
2024-04-14T13:17:22.466Z,1014.58
2024-04-14T13:18:22.424Z,1014.53
2024-04-14T13:19:22.426Z,1014.55
2024-04-14T13:20:22.444Z,1014.51
2024-04-14T13:21:22.399Z,1014.52
2024-04-14T13:22:22.414Z,1014.54
2024-04-14T13:23:22.483Z,1014.51
2024-04-14T13:24:22.363Z,1014.50
2024-04-14T13:25:22.355Z,1014.57
2024-04-14T13:26:22.352Z,1014.66
2024-04-14T13:27:22.328Z,1014.67
2024-04-14T13:28:22.331Z,1014.55
2024-04-14T13:29:22.340Z,1014.44
2024-04-14T13:30:22.308Z,1014.50
2024-04-14T13:31:22.284Z,1014.36
2024-04-14T13:32:22.287Z,1014.35
2024-04-14T13:33:22.421Z,1014.33
2024-04-14T13:34:22.403Z,1014.54
2024-04-14T13:35:22.265Z,1014.38
2024-04-14T13:36:22.232Z,1014.34
2024-04-14T13:37:22.218Z,1014.34
2024-04-14T13:38:22.230Z,1014.29
2024-04-14T13:39:22.231Z,1014.36
2024-04-14T13:40:22.195Z,1014.32
2024-04-14T13:41:22.187Z,1014.34
2024-04-14T13:42:22.198Z,1014.32
2024-04-14T13:43:22.201Z,1014.26
2024-04-14T13:44:22.224Z,1014.34
2024-04-14T13:45:22.160Z,1014.23
2024-04-14T13:46:22.174Z,1014.34
2024-04-14T13:47:22.133Z,1014.23
2024-04-14T13:48:22.118Z,1014.25
2024-04-14T13:49:22.130Z,1014.24
2024-04-14T13:50:22.120Z,1014.31
2024-04-14T13:51:22.078Z,1014.23
2024-04-14T13:52:22.071Z,1014.21
2024-04-14T13:53:22.074Z,1014.28
2024-04-14T13:54:22.062Z,1014.21
2024-04-14T13:55:22.816Z,1014.16
2024-04-14T13:56:22.084Z,1014.13
2024-04-14T13:57:22.015Z,1014.08
2024-04-14T13:58:22.120Z,1014.15
2024-04-14T13:59:21.995Z,1014.09
2024-04-14T14:00:21.983Z,1014.14
2024-04-14T14:01:22.141Z,1014.12
2024-04-14T14:02:22.104Z,1014.14
2024-04-14T14:03:21.965Z,1014.12
2024-04-14T14:04:22.004Z,1014.14
2024-04-14T14:05:21.919Z,1014.08
2024-04-14T14:06:21.921Z,1014.14
2024-04-14T14:07:22.705Z,1014.08
2024-04-14T14:08:21.926Z,1014.08
2024-04-14T14:09:21.890Z,1014.11
2024-04-14T14:10:21.985Z,1014.11
2024-04-14T14:11:21.907Z,1014.17
2024-04-14T14:12:21.907Z,1014.02
2024-04-14T14:13:23.062Z,1013.97
2024-04-14T14:14:21.860Z,1013.95
2024-04-14T14:15:21.839Z,1014.00
2024-04-14T14:16:21.907Z,1013.94
2024-04-14T14:17:21.817Z,1013.94
2024-04-14T14:18:21.848Z,1013.95
2024-04-14T14:19:22.411Z,1013.85
2024-04-14T14:20:21.767Z,1013.89
2024-04-14T14:21:21.780Z,1013.93
2024-04-14T14:22:21.755Z,1013.89
2024-04-14T14:23:21.753Z,1013.86
2024-04-14T14:24:21.788Z,1013.88
2024-04-14T14:25:21.728Z,1013.90
2024-04-14T14:26:21.708Z,1013.87
2024-04-14T14:27:21.721Z,1013.88
2024-04-14T14:28:21.686Z,1013.84
2024-04-14T14:29:21.675Z,1013.87
2024-04-14T14:30:21.680Z,1013.84
2024-04-14T14:31:21.687Z,1013.70
2024-04-14T14:32:21.655Z,1013.87
2024-04-14T14:33:21.717Z,1013.88
2024-04-14T14:34:21.686Z,1014.04
2024-04-14T14:35:21.609Z,1013.81
2024-04-14T14:36:21.619Z,1013.81
2024-04-14T14:37:21.596Z,1013.81
2024-04-14T14:38:30.698Z,1013.83
2024-04-14T14:39:21.623Z,1013.94
2024-04-14T14:40:21.602Z,1013.80
2024-04-14T14:41:21.552Z,1013.81
2024-04-14T14:42:21.531Z,1013.77
2024-04-14T14:43:21.524Z,1013.74
2024-04-14T14:44:21.519Z,1013.86
2024-04-14T14:45:21.535Z,1013.77
2024-04-14T14:46:21.488Z,1013.79
2024-04-14T14:47:21.512Z,1013.75
2024-04-14T14:48:21.555Z,1013.83
2024-04-14T14:49:21.520Z,1013.72
2024-04-14T14:50:21.472Z,1013.73
2024-04-14T14:51:21.465Z,1013.81
2024-04-14T14:52:21.428Z,1013.76
2024-04-14T14:53:21.426Z,1013.82
2024-04-14T14:54:21.408Z,1013.83
2024-04-14T14:55:21.407Z,1013.93
2024-04-14T14:56:21.418Z,1013.88
2024-04-14T14:57:21.376Z,1013.86
2024-04-14T14:58:21.350Z,1013.91
2024-04-14T14:59:21.353Z,1013.87
2024-04-14T15:00:21.346Z,1013.83
2024-04-14T15:01:21.466Z,1013.83
2024-04-14T15:02:21.363Z,1013.98
2024-04-14T15:03:21.321Z,1013.82
2024-04-14T15:04:21.362Z,1013.87
2024-04-14T15:05:21.303Z,1013.75
2024-04-14T15:06:21.280Z,1013.78
2024-04-14T15:07:21.296Z,1013.86
2024-04-14T15:08:21.265Z,1013.89
2024-04-14T15:09:21.244Z,1013.87
2024-04-14T15:10:21.239Z,1013.88
2024-04-14T15:11:21.346Z,1013.90
2024-04-14T15:12:21.236Z,1013.91
2024-04-14T15:13:21.230Z,1013.86
2024-04-14T15:14:21.219Z,1013.85
2024-04-14T15:15:21.188Z,1013.90
2024-04-14T15:16:21.174Z,1013.88
2024-04-14T15:17:21.223Z,1013.84
2024-04-14T15:18:21.165Z,1013.80
2024-04-14T15:19:21.183Z,1013.97
2024-04-14T15:20:21.235Z,1013.96
2024-04-14T15:21:21.134Z,1013.98
2024-04-14T15:22:21.106Z,1013.94
2024-04-14T15:23:21.145Z,1013.94
2024-04-14T15:24:21.089Z,1013.87
2024-04-14T15:25:21.090Z,1013.81
2024-04-14T15:26:21.063Z,1013.77
2024-04-14T15:27:21.072Z,1013.83
2024-04-14T15:28:25.585Z,1013.79
2024-04-14T15:29:21.061Z,1013.71
2024-04-14T15:30:21.025Z,1013.71
2024-04-14T15:31:21.092Z,1013.72
2024-04-14T15:32:20.999Z,1013.73
2024-04-14T15:33:21.040Z,1013.71
2024-04-14T15:34:20.963Z,1013.71
2024-04-14T15:35:20.974Z,1013.72
2024-04-14T15:36:20.975Z,1013.73
2024-04-14T15:37:20.947Z,1013.70
2024-04-14T15:38:20.949Z,1013.72
2024-04-14T15:39:20.974Z,1013.70
2024-04-14T15:40:21.011Z,1013.72
2024-04-14T15:41:21.745Z,1013.67
2024-04-14T15:42:20.891Z,1013.66
2024-04-14T15:43:20.875Z,1013.65
2024-04-14T15:44:25.953Z,1013.67
2024-04-14T15:45:20.884Z,1013.61
2024-04-14T15:46:20.838Z,1013.55
2024-04-14T15:47:20.905Z,1013.54
2024-04-14T15:48:20.868Z,1013.54
2024-04-14T15:49:20.812Z,1013.56
2024-04-14T15:50:20.878Z,1013.54
2024-04-14T15:51:21.186Z,1013.64
2024-04-14T15:52:20.915Z,1013.65
2024-04-14T15:53:20.799Z,1013.59
2024-04-14T15:54:20.777Z,1013.65
2024-04-14T15:55:20.745Z,1013.71
2024-04-14T15:56:20.800Z,1013.70
2024-04-14T15:57:28.016Z,1013.64
2024-04-14T15:58:20.789Z,1013.59
2024-04-14T15:59:20.707Z,1013.63
2024-04-14T16:00:20.708Z,1013.59
2024-04-14T16:01:20.807Z,1013.58
2024-04-14T16:02:20.701Z,1013.59
2024-04-14T16:03:20.699Z,1013.55
2024-04-14T16:04:20.739Z,1013.57
2024-04-14T16:05:20.638Z,1013.54
2024-04-14T16:06:20.639Z,1013.60
2024-04-14T16:07:20.618Z,1013.59
2024-04-14T16:08:20.671Z,1013.53
2024-04-14T16:09:20.606Z,1013.59
2024-04-14T16:10:20.636Z,1013.60
2024-04-14T16:11:20.593Z,1013.61
2024-04-14T16:12:20.567Z,1013.62
2024-04-14T16:13:20.562Z,1013.59
2024-04-14T16:14:20.579Z,1013.57
2024-04-14T16:15:20.549Z,1013.67
2024-04-14T16:16:20.544Z,1013.62
2024-04-14T16:17:20.637Z,1013.64
2024-04-14T16:18:20.584Z,1013.55
2024-04-14T16:19:20.631Z,1013.52
2024-04-14T16:20:20.539Z,1013.60
2024-04-14T16:21:20.521Z,1013.57
2024-04-14T16:22:20.461Z,1013.59
2024-04-14T16:23:20.455Z,1013.58
2024-04-14T16:24:20.448Z,1013.62
2024-04-14T16:25:20.480Z,1013.59
2024-04-14T16:26:20.456Z,1013.56
2024-04-14T16:27:20.415Z,1013.54
2024-04-14T16:28:20.419Z,1013.58
2024-04-14T16:29:20.387Z,1013.57
2024-04-14T16:30:20.389Z,1013.59
2024-04-14T16:31:20.423Z,1013.64
2024-04-14T16:32:20.516Z,1013.64
2024-04-14T16:33:20.405Z,1013.61
2024-04-14T16:34:20.362Z,1013.60
2024-04-14T16:35:20.318Z,1013.58
2024-04-14T16:36:20.310Z,1013.57
2024-04-14T16:37:20.348Z,1013.56
2024-04-14T16:38:20.283Z,1013.56
2024-04-14T16:39:20.280Z,1013.69
2024-04-14T16:40:20.272Z,1013.63
2024-04-14T16:41:20.265Z,1013.65
2024-04-14T16:42:20.292Z,1013.56
2024-04-14T16:43:20.242Z,1013.57
2024-04-14T16:44:20.238Z,1013.55
2024-04-14T16:45:20.227Z,1013.57
2024-04-14T16:46:20.247Z,1013.61
2024-04-14T16:47:20.221Z,1013.57
2024-04-14T16:48:20.292Z,1013.56
2024-04-14T16:49:20.232Z,1013.69
2024-04-14T16:50:20.183Z,1013.68
2024-04-14T16:51:20.153Z,1013.61
2024-04-14T16:52:20.231Z,1013.61
2024-04-14T16:53:20.171Z,1013.64
2024-04-14T16:54:20.121Z,1013.63
2024-04-14T16:55:20.213Z,1013.62
2024-04-14T16:56:20.111Z,1013.59
2024-04-14T16:57:20.092Z,1013.54
2024-04-14T16:58:20.136Z,1013.57
2024-04-14T16:59:20.113Z,1013.58
2024-04-14T17:00:20.048Z,1013.55
2024-04-14T17:01:20.131Z,1013.56
2024-04-14T17:02:20.049Z,1013.50
2024-04-14T17:03:20.183Z,1013.59
2024-04-14T17:04:20.155Z,1013.55
2024-04-14T17:05:20.019Z,1013.58
2024-04-14T17:06:19.997Z,1013.52
2024-04-14T17:07:19.977Z,1013.55
2024-04-14T17:08:19.971Z,1013.51
2024-04-14T17:09:20.014Z,1013.52
2024-04-14T17:10:19.989Z,1013.51
2024-04-14T17:11:19.965Z,1013.46
2024-04-14T17:12:19.924Z,1013.50
2024-04-14T17:13:19.944Z,1013.47
2024-04-14T17:14:19.903Z,1013.47
2024-04-14T17:15:19.942Z,1013.40
2024-04-14T17:16:19.930Z,1013.43
2024-04-14T17:17:19.876Z,1013.49
2024-04-14T17:18:19.866Z,1013.51
2024-04-14T17:19:19.873Z,1013.52
2024-04-14T17:20:19.890Z,1013.56
2024-04-14T17:21:19.860Z,1013.52
2024-04-14T17:22:19.829Z,1013.52
2024-04-14T17:23:19.806Z,1013.52
2024-04-14T17:24:19.817Z,1013.52
2024-04-14T17:25:19.895Z,1013.44
2024-04-14T17:26:19.834Z,1013.48
2024-04-14T17:27:19.775Z,1013.46
2024-04-14T17:28:19.774Z,1013.37
2024-04-14T17:29:19.779Z,1013.40
2024-04-14T17:30:19.742Z,1013.41
2024-04-14T17:31:19.738Z,1013.47
2024-04-14T17:32:19.778Z,1013.50
2024-04-14T17:33:19.799Z,1013.54
2024-04-14T17:34:19.770Z,1013.51
2024-04-14T17:35:19.679Z,1013.51
2024-04-14T17:36:19.669Z,1013.51
2024-04-14T17:37:19.662Z,1013.51
2024-04-14T17:38:19.673Z,1013.51
2024-04-14T17:39:19.630Z,1013.49
2024-04-14T17:40:19.717Z,1013.48
2024-04-14T17:41:19.644Z,1013.48
2024-04-14T17:42:19.614Z,1013.45
2024-04-14T17:43:19.690Z,1013.46
2024-04-14T17:44:19.614Z,1013.47
2024-04-14T17:45:21.483Z,1013.46
2024-04-14T17:46:19.652Z,1013.46
2024-04-14T17:47:19.618Z,1013.49
2024-04-14T17:48:19.579Z,1013.47
2024-04-14T17:49:19.588Z,1013.51
2024-04-14T17:50:19.526Z,1013.47
2024-04-14T17:51:19.516Z,1013.52
2024-04-14T17:52:19.502Z,1013.53
2024-04-14T17:53:19.496Z,1013.53
2024-04-14T17:54:19.487Z,1013.53
2024-04-14T17:55:19.510Z,1013.56
2024-04-14T17:56:19.457Z,1013.59
2024-04-14T17:57:19.479Z,1013.57
2024-04-14T17:58:19.450Z,1013.61
2024-04-14T17:59:19.433Z,1013.63